Time;durP1;ratioP1;P1;durP2;ratioP2;P2;SDS_P1;SDS_P2;PMS_P1;PMS_P2;Temp;Humidity;BMP_temperature;BMP_pressure;BME280_temperature;BME280_humidity;BME280_pressure;Samples;Min_cycle;Max_cycle;Signal;HPM_P1;HPM_P2
2022/06/22 00:00:41;;;;;;;8.20;6.30;;;;;;;25.32;44.15;101519.41;5095833;28;20501;-78
2022/06/22 00:03:09;;;;;;;4.90;4.03;;;;;;;25.32;44.38;101516.59;5095856;28;20106;-78
2022/06/22 00:05:48;;;;;;;8.85;4.68;;;;;;;25.31;44.22;101517.78;5083397;28;20036;-78
2022/06/22 00:08:21;;;;;;;8.13;5.10;;;;;;;25.35;44.31;101515.78;5075666;28;20017;-85
2022/06/22 00:11:06;;;;;;;8.80;6.18;;;;;;;25.35;44.24;101520.59;5075423;28;20028;-78
2022/06/22 00:13:33;;;;;;;5.50;4.80;;;;;;;25.33;44.40;101517.41;5075375;28;20052;-78
2022/06/22 00:16:01;;;;;;;11.35;4.95;;;;;;;25.30;44.15;101518.16;5075188;28;20529;-78
2022/06/22 00:18:34;;;;;;;7.35;5.22;;;;;;;25.33;43.99;101523.78;5074855;28;20049;-78
2022/06/22 00:21:04;;;;;;;9.88;6.00;;;;;;;25.37;44.11;101515.41;5075917;28;20507;-78
2022/06/22 00:23:30;;;;;;;13.40;6.00;;;;;;;25.35;44.11;101520.59;5094249;28;20035;-78
2022/06/22 00:26:27;;;;;;;7.93;4.93;;;;;;;25.33;44.01;101509.00;5095327;28;20027;-78
2022/06/22 00:28:58;;;;;;;6.70;5.80;;;;;;;25.34;44.18;101497.41;5094169;28;20466;-79
2022/06/22 00:31:37;;;;;;;5.68;4.20;;;;;;;25.26;44.54;101504.19;5089716;28;20482;-78
2022/06/22 00:34:13;;;;;;;6.13;4.35;;;;;;;25.16;44.71;101494.59;5075120;28;20053;-79
2022/06/22 00:36:49;;;;;;;4.25;3.60;;;;;;;25.23;44.64;101496.56;5075083;28;20028;-79
2022/06/22 00:39:20;;;;;;;5.88;3.80;;;;;;;25.28;44.22;101499.00;5074738;28;20108;-78
2022/06/22 00:42:00;;;;;;;7.60;5.72;;;;;;;25.29;44.22;101494.19;5082459;28;20024;-79
2022/06/22 00:44:30;;;;;;;11.38;6.28;;;;;;;25.30;44.22;101495.78;5094700;28;20132;-78
2022/06/22 00:47:14;;;;;;;7.40;5.03;;;;;;;25.27;44.61;101503.00;5095146;28;20099;-78
2022/06/22 00:49:43;;;;;;;7.03;4.97;;;;;;;25.25;44.38;101505.38;5094559;28;20490;-78
2022/06/22 00:52:09;;;;;;;6.57;5.00;;;;;;;25.06;44.77;101503.72;5094645;28;20024;-78
2022/06/22 00:54:37;;;;;;;7.97;5.22;;;;;;;25.12;44.48;101512.53;5093202;28;20031;-79
2022/06/22 00:57:10;;;;;;;6.70;5.10;;;;;;;25.13;44.93;101509.34;5094786;28;20516;-78
2022/06/22 00:59:39;;;;;;;8.60;4.93;;;;;;;25.11;44.64;101505.34;5091173;28;20470;-78
2022/06/22 01:02:30;;;;;;;8.68;6.70;;;;;;;25.14;44.75;101504.53;5074405;28;20046;-78
2022/06/22 01:05:06;;;;;;;8.40;5.78;;;;;;;25.15;44.85;101508.94;5074292;28;20494;-78
2022/06/22 01:07:47;;;;;;;11.60;6.65;;;;;;;25.11;44.96;101506.13;5074451;28;20048;-78
2022/06/22 01:10:26;;;;;;;9.43;6.90;;;;;;;25.10;44.58;101503.75;5082141;28;20020;-78
2022/06/22 01:13:17;;;;;;;10.35;7.53;;;;;;;25.15;44.74;101504.13;5094439;28;20099;-78
2022/06/22 01:15:53;;;;;;;9.48;6.88;;;;;;;25.17;44.85;101498.19;5094501;28;20036;-78
2022/06/22 01:18:33;;;;;;;11.10;7.60;;;;;;;25.17;44.64;101492.59;5094312;28;20102;-78
2022/06/22 01:21:28;;;;;;;7.30;5.65;;;;;;;25.15;44.41;101501.34;5083188;28;20052;-79
2022/06/22 01:24:08;;;;;;;9.05;7.28;;;;;;;25.14;44.54;101493.34;5073971;28;20035;-78
2022/06/22 01:26:52;;;;;;;8.90;7.28;;;;;;;25.10;44.90;101503.75;5074097;28;20029;-78
2022/06/22 01:29:23;;;;;;;11.20;8.23;;;;;;;25.11;44.93;101494.94;5072577;28;20085;-79
2022/06/22 01:32:15;;;;;;;9.88;7.93;;;;;;;25.19;44.70;101495.78;5089849;28;20073;-78
2022/06/22 01:34:51;;;;;;;8.07;6.68;;;;;;;25.24;44.50;101492.59;5094060;28;20024;-78
2022/06/22 01:37:21;;;;;;;10.25;7.30;;;;;;;25.28;44.45;101493.41;5093991;28;20027;-78
2022/06/22 01:39:48;;;;;;;11.65;8.93;;;;;;;25.29;44.27;101495.00;5092772;28;20042;-79
2022/06/22 01:42:27;;;;;;;12.90;8.60;;;;;;;25.30;44.45;101495.78;5093440;28;20111;-80
2022/06/22 01:45:16;;;;;;;10.57;7.53;;;;;;;25.33;44.02;101490.22;5093707;28;20055;-78
2022/06/22 01:47:52;;;;;;;11.13;8.10;;;;;;;25.33;44.07;101484.63;5093725;28;20028;-78
2022/06/22 01:50:47;;;;;;;11.18;7.63;;;;;;;25.20;44.47;101491.78;5089644;28;20036;-78
2022/06/22 01:53:37;;;;;;;9.30;5.57;;;;;;;25.16;44.71;101480.59;5073404;28;20121;-78
2022/06/22 01:56:35;;;;;;;;;;;;;;;25.09;44.82;101490.94;5072781;28;20036;-78
2022/06/22 01:59:21;;;;;;;14.55;7.25;;;;;;;25.01;44.82;101498.47;5049298;28;20051;-78
2022/06/22 02:02:20;;;;;;;14.30;7.85;;;;;;;25.10;44.82;101489.75;5093151;28;20028;-78
2022/06/22 02:04:54;;;;;;;11.70;8.93;;;;;;;25.08;44.88;101489.34;5093179;28;20032;-78
2022/06/22 02:07:44;;;;;;;12.48;9.20;;;;;;;25.12;44.64;101484.56;5092815;28;20035;-78
2022/06/22 02:10:23;;;;;;;14.40;9.05;;;;;;;25.30;44.18;101484.59;5079426;28;20111;-77
2022/06/22 02:13:00;;;;;;;13.30;9.95;;;;;;;25.33;44.28;101479.03;5073107;28;20544;-78
2022/06/22 02:15:38;;;;;;;17.40;10.95;;;;;;;25.27;44.41;101475.03;5072985;28;20033;-78
2022/06/22 02:18:10;;;;;;;16.38;10.25;;;;;;;25.35;44.31;101467.44;5080470;28;20047;-83
2022/06/22 02:20:37;;;;;;;12.05;8.63;;;;;;;25.36;44.00;101472.63;5091599;28;20028;-78
2022/06/22 02:23:34;;;;;;;12.13;9.00;;;;;;;25.35;44.46;101471.03;5073018;28;20119;-78
2022/06/22 02:26:15;;;;;;;11.30;8.30;;;;;;;25.36;44.26;101477.44;5072288;28;20044;-78
2022/06/22 02:28:42;;;;;;;13.48;8.93;;;;;;;25.38;44.05;101463.84;5087331;28;20423;-84
2022/06/22 02:31:09;;;;;;;16.20;8.98;;;;;;;25.40;44.11;101462.28;5093019;28;20536;-78
2022/06/22 02:33:39;;;;;;;17.80;9.05;;;;;;;25.34;44.52;101463.84;5093083;28;20035;-78
2022/06/22 02:36:06;;;;;;;14.10;8.57;;;;;;;25.31;44.44;101459.03;5091050;28;20410;-78
2022/06/22 02:38:32;;;;;;;11.65;9.23;;;;;;;25.22;44.64;101460.63;5078215;28;20507;-78
2022/06/22 02:46:36;;;;;;;10.50;7.63;;;;;;;25.27;44.93;101463.03;5072925;28;20098;-78
2022/06/22 02:49:07;;;;;;;12.40;8.35;;;;;;;25.28;44.68;101459.84;5079197;28;20051;-78
2022/06/22 02:51:45;;;;;;;12.27;8.32;;;;;;;25.26;44.81;101461.44;5072588;28;20528;-78
2022/06/22 02:54:31;;;;;;;14.35;7.93;;;;;;;25.24;44.96;101459.03;5074160;28;20027;-78
2022/06/22 02:57:02;;;;;;;11.70;8.52;;;;;;;25.25;45.00;101454.25;5072307;28;20086;-78
2022/06/22 02:59:29;;;;;;;12.00;8.77;;;;;;;25.25;44.92;101454.25;5072499;28;20063;-78
2022/06/22 03:01:55;;;;;;;10.68;8.60;;;;;;;25.24;44.74;101459.03;5072370;28;20032;-78
2022/06/22 03:04:21;;;;;;;14.43;9.60;;;;;;;25.15;45.31;101458.59;5073408;28;20534;-78
2022/06/22 03:06:51;;;;;;;13.23;9.43;;;;;;;25.19;45.10;101462.22;5081439;28;20032;-78
2022/06/22 03:09:17;;;;;;;10.63;7.63;;;;;;;25.27;44.98;101458.25;5092595;28;20028;-78
2022/06/22 03:11:47;;;;;;;14.63;10.05;;;;;;;25.27;45.11;101451.84;5092605;28;20024;-78
2022/06/22 03:14:17;;;;;;;11.07;8.65;;;;;;;25.25;45.16;101449.47;5089675;28;20036;-79
2022/06/22 03:16:47;;;;;;;12.43;8.27;;;;;;;25.25;44.98;101452.25;5073387;28;20056;-79
2022/06/22 03:19:18;;;;;;;11.13;8.45;;;;;;;25.31;44.73;101452.63;5076379;28;20029;-84
2022/06/22 03:21:43;;;;;;;11.68;9.00;;;;;;;25.32;44.65;101443.88;5076456;28;20032;-78
2022/06/22 03:24:32;;;;;;;11.68;8.82;;;;;;;25.42;44.51;101447.88;5076549;28;20360;-78
2022/06/22 03:27:05;;;;;;;10.82;8.65;;;;;;;25.38;44.49;101447.84;5056335;28;20510;-78
2022/06/22 03:29:37;;;;;;;12.77;8.98;;;;;;;25.39;44.41;101455.06;5056440;28;20017;-78
2022/06/22 03:32:13;;;;;;;12.77;9.90;;;;;;;25.38;44.62;101459.03;5056181;28;20025;-78
2022/06/22 03:34:47;;;;;;;12.38;9.30;;;;;;;25.43;44.40;101455.88;5093542;28;20038;-78
2022/06/22 03:37:35;;;;;;;13.38;9.80;;;;;;;25.40;44.43;101447.47;5096146;28;20145;-78
2022/06/22 03:40:12;;;;;;;15.07;10.30;;;;;;;25.42;44.51;101450.69;5096425;28;20389;-78
2022/06/22 03:42:45;;;;;;;12.65;10.00;;;;;;;25.41;44.84;101449.09;5094210;28;20028;-78
2022/06/22 03:45:25;;;;;;;10.25;8.25;;;;;;;25.42;44.71;101454.28;5075601;28;20051;-78
2022/06/22 03:48:00;;;;;;;11.20;8.73;;;;;;;25.41;44.83;101449.09;5087032;28;20027;-78
2022/06/22 03:51:09;;;;;;;12.38;8.63;;;;;;;25.41;44.72;101447.09;5096025;28;20468;-77
2022/06/22 03:53:41;;;;;;;12.27;8.40;;;;;;;25.41;44.74;101449.09;5077325;28;20036;-79
2022/06/22 03:56:12;;;;;;;14.40;9.10;;;;;;;25.40;44.52;101448.28;5095927;28;20031;-84
2022/06/22 03:58:41;;;;;;;12.52;7.88;;;;;;;25.39;44.67;101441.09;5095555;28;20032;-78
2022/06/22 04:01:07;;;;;;;11.45;9.02;;;;;;;25.42;44.78;101437.47;5096004;28;20102;-78
2022/06/22 04:03:33;;;;;;;13.50;9.50;;;;;;;25.42;44.77;101436.69;5086807;28;20116;-78
2022/06/22 04:06:03;;;;;;;14.38;9.70;;;;;;;25.33;44.91;101441.88;5075333;28;20028;-78
2022/06/22 04:08:36;;;;;;;10.65;8.38;;;;;;;25.37;44.62;101443.47;5075442;28;20021;-79
2022/06/22 04:11:14;;;;;;;16.30;10.43;;;;;;;25.35;44.84;101445.06;5075453;28;20024;-78
2022/06/22 04:14:04;;;;;;;12.32;9.45;;;;;;;25.37;44.68;101446.25;5084553;28;20107;-78
2022/06/22 04:16:38;;;;;;;16.27;9.88;;;;;;;25.33;45.00;101450.28;5095629;28;20066;-78
2022/06/22 04:19:19;;;;;;;14.15;9.70;;;;;;;25.52;44.42;101443.47;5094486;28;20020;-78
2022/06/22 04:21:50;;;;;;;13.27;9.50;;;;;;;25.55;44.25;101446.31;5095364;28;20031;-78
2022/06/22 04:24:22;;;;;;;18.60;9.65;;;;;;;25.51;44.37;101439.09;5081142;28;20028;-78
2022/06/22 04:27:01;;;;;;;12.40;9.02;;;;;;;25.39;44.56;101432.69;5075060;28;20020;-78
2022/06/22 04:29:35;;;;;;;11.68;8.23;;;;;;;25.38;44.81;101442.25;5074182;28;20413;-78
2022/06/22 04:32:11;;;;;;;15.18;9.95;;;;;;;25.40;44.63;101442.69;5083901;28;20111;-79
2022/06/22 04:34:45;;;;;;;12.38;9.05;;;;;;;25.40;45.00;101439.09;5095409;28;20027;-78
2022/06/22 04:37:27;;;;;;;12.45;9.15;;;;;;;25.48;44.54;101443.50;5095230;28;20028;-78
2022/06/22 04:40:05;;;;;;;11.75;8.10;;;;;;;25.38;44.85;101447.84;5095172;28;20106;-78
2022/06/22 04:42:31;;;;;;;12.68;7.68;;;;;;;25.38;45.09;101456.25;5077702;28;20029;-80
2022/06/22 04:44:57;;;;;;;12.10;8.77;;;;;;;25.40;45.18;101462.28;5074406;28;20071;-78
2022/06/22 04:47:29;;;;;;;14.10;8.23;;;;;;;25.26;45.33;101467.03;5074664;28;20025;-78
2022/06/22 04:49:58;;;;;;;10.38;7.10;;;;;;;25.32;45.39;101455.06;5074829;28;20104;-78
2022/06/22 04:52:33;;;;;;;8.82;7.38;;;;;;;25.23;45.80;101457.41;5074921;28;20355;-78
2022/06/22 04:55:01;;;;;;;11.35;8.15;;;;;;;25.30;45.37;101456.63;5074788;28;20082;-78
2022/06/22 04:57:32;;;;;;;13.73;8.20;;;;;;;25.33;45.47;101456.66;5074583;28;20025;-78
2022/06/22 05:00:01;;;;;;;12.70;8.10;;;;;;;25.32;45.25;101466.25;5074403;28;20105;-78
2022/06/22 05:02:28;;;;;;;14.70;9.00;;;;;;;25.32;45.47;101477.44;5074863;28;20035;-78
2022/06/22 05:05:02;;;;;;;13.93;8.82;;;;;;;25.30;45.82;101468.63;5074504;28;20386;-78
2022/06/22 05:07:41;;;;;;;13.80;8.48;;;;;;;25.16;46.20;101468.59;5074522;28;20024;-78
2022/06/22 05:10:20;;;;;;;13.73;8.00;;;;;;;25.29;45.60;101472.63;5073839;28;20478;-79
2022/06/22 05:13:02;;;;;;;12.25;9.18;;;;;;;25.27;45.85;101460.25;5074246;28;20036;-78
2022/06/22 05:15:36;;;;;;;10.25;7.20;;;;;;;25.24;45.70;101475.81;5074335;28;20021;-78
2022/06/22 05:18:08;;;;;;;9.07;7.30;;;;;;;25.22;45.84;101477.41;5074422;28;20552;-78
2022/06/22 05:20:45;;;;;;;9.20;6.20;;;;;;;25.24;45.98;101492.59;5086004;28;20470;-78
2022/06/22 05:23:12;;;;;;;9.60;6.65;;;;;;;25.23;45.77;101493.78;5094204;28;20028;-78
2022/06/22 05:25:42;;;;;;;9.90;6.32;;;;;;;25.24;45.64;101497.38;5093032;28;20109;-78
2022/06/22 05:28:22;;;;;;;;;;;;;;;25.07;46.40;101493.34;5094896;28;20039;-78
2022/06/22 05:31:15;;;;;;;10.13;6.07;;;;;;;25.12;46.00;101502.16;5078645;28;19912;-78
2022/06/22 05:33:46;;;;;;;13.07;6.50;;;;;;;25.16;45.55;101499.34;5073673;28;20033;-78
2022/06/22 05:36:16;;;;;;;8.35;6.50;;;;;;;25.25;45.79;101499.78;5074010;28;20033;-88
2022/06/22 05:38:48;;;;;;;9.52;6.45;;;;;;;25.16;45.79;101499.34;5073826;28;20021;-78
2022/06/22 05:41:19;;;;;;;10.70;6.68;;;;;;;25.13;45.96;101491.75;5092377;28;20032;-78
2022/06/22 05:43:46;;;;;;;10.18;6.82;;;;;;;25.23;45.74;101504.16;5092678;28;20016;-87
2022/06/22 05:46:14;;;;;;;9.73;6.40;;;;;;;25.25;45.69;101499.00;5093793;28;20047;-79
2022/06/22 05:48:49;;;;;;;12.82;11.73;;;;;;;25.23;45.81;101507.75;5093882;28;20102;-78
2022/06/22 05:51:36;;;;;;;7.68;6.88;;;;;;;25.14;46.25;101515.72;5075615;28;20025;-79
2022/06/22 05:54:23;;;;;;;11.02;7.10;;;;;;;25.18;46.23;101508.97;5073493;28;20031;-79
2022/06/22 05:57:02;;;;;;;7.70;6.32;;;;;;;25.14;46.10;101510.13;5073448;28;20029;-79
2022/06/22 05:59:45;;;;;;;8.13;6.03;;;;;;;25.22;45.97;101505.38;5074186;28;20033;-79
2022/06/22 06:02:25;;;;;;;9.70;7.05;;;;;;;25.18;46.17;101503.38;5070570;28;20104;-80
2022/06/22 06:05:05;;;;;;;8.48;6.47;;;;;;;25.18;46.02;101508.16;5072850;28;20056;-78
2022/06/22 06:07:33;;;;;;;;;;;;;;;25.13;46.30;101506.53;5073453;28;20056;-79
2022/06/22 06:10:01;;;;;;;10.00;7.28;;;;;;;25.22;45.82;101510.97;5073327;28;19916;-80
2022/06/22 06:12:38;;;;;;;11.18;6.30;;;;;;;25.16;45.85;101502.16;5068612;28;20031;-87
2022/06/22 06:15:06;;;;;;;11.73;7.80;;;;;;;25.20;45.72;101508.56;5058820;28;20044;-80
2022/06/22 06:17:44;;;;;;;11.88;8.70;;;;;;;25.29;45.99;101516.56;5058681;28;20028;-81
2022/06/22 06:20:22;;;;;;;12.15;7.70;;;;;;;25.18;45.85;101510.97;5058525;28;20119;-86
2022/06/22 06:22:52;;;;;;;11.40;7.55;;;;;;;25.12;45.92;101523.72;5058560;28;20470;-79
2022/06/22 06:28:20;;;;;;;8.98;7.32;;;;;;;25.13;45.95;101514.13;5060313;28;20044;-79
2022/06/22 06:30:50;;;;;;;11.82;7.95;;;;;;;25.11;46.25;101516.53;5057928;28;20034;-80
2022/06/22 06:33:28;;;;;;;11.93;7.78;;;;;;;25.15;45.92;101522.91;5059417;28;20035;-78
2022/06/22 06:36:21;;;;;;;11.38;8.38;;;;;;;25.25;45.92;101512.97;5058352;28;20583;-79
2022/06/22 06:39:01;;;;;;;12.45;8.95;;;;;;;25.27;45.54;101516.97;5056300;28;20029;-79
2022/06/22 06:42:05;;;;;;;12.10;8.80;;;;;;;25.27;45.70;101524.56;5056367;28;20677;-78
2022/06/22 06:44:38;;;;;;;11.77;8.27;;;;;;;25.20;46.08;101525.34;5057279;28;20178;-78
2022/06/22 06:47:12;;;;;;;9.85;6.88;;;;;;;25.20;46.00;101525.34;5056920;28;20036;-78
2022/06/22 06:49:40;;;;;;;10.18;6.78;;;;;;;25.11;45.96;101533.31;5057091;28;20162;-79
2022/06/22 06:52:26;;;;;;;10.02;6.65;;;;;;;25.03;46.20;101523.25;5056128;28;20020;-78
2022/06/22 06:55:13;;;;;;;8.63;6.85;;;;;;;25.20;45.83;101528.13;5056792;28;20028;-78
2022/06/22 06:57:59;;;;;;;11.35;6.75;;;;;;;25.26;45.49;101529.38;5055439;28;20450;-79
2022/06/22 07:00:28;;;;;;;8.35;5.63;;;;;;;25.41;45.32;101517.00;5056509;28;20383;-78
2022/06/22 07:02:53;;;;;;;10.77;6.05;;;;;;;25.36;45.20;101520.19;5055205;28;20039;-78
2022/06/22 07:05:22;;;;;;;7.25;5.80;;;;;;;25.39;45.28;101519.41;5058043;28;20028;-78
2022/06/22 07:07:54;;;;;;;9.15;5.95;;;;;;;25.46;44.89;101510.22;5070337;28;20486;-77
2022/06/22 07:10:33;;;;;;;8.82;6.10;;;;;;;25.38;45.03;101509.41;5072394;28;20408;-78
2022/06/22 07:13:06;;;;;;;8.82;6.30;;;;;;;25.43;45.40;101509.03;5068649;28;20067;-78
2022/06/22 07:15:40;;;;;;;11.25;6.63;;;;;;;25.39;45.40;101511.03;5071669;28;20032;-77
2022/06/22 07:18:47;;;;;;;10.65;7.15;;;;;;;25.60;44.99;101515.03;5090381;28;20615;-87
2022/06/22 07:21:29;;;;;;;11.80;6.50;;;;;;;25.43;45.27;101514.63;5065983;28;20620;-79
2022/06/22 07:24:03;;;;;;;10.07;6.57;;;;;;;25.54;45.23;101520.22;5073076;28;20098;-78
2022/06/22 07:26:59;;;;;;;9.27;6.63;;;;;;;25.61;45.13;101528.63;5072497;28;20120;-80
2022/06/22 07:29:46;;;;;;;13.80;7.22;;;;;;;25.87;44.31;101521.91;5071152;28;20226;-77
2022/06/22 07:32:30;;;;;;;9.60;6.82;;;;;;;25.81;44.39;101520.69;5071427;28;20028;-77
2022/06/22 07:35:10;;;;;;;8.63;7.07;;;;;;;25.96;44.17;101513.09;5089801;28;20038;-77
2022/06/22 07:37:43;;;;;;;8.13;6.45;;;;;;;25.87;44.65;101524.72;5091629;28;20032;-77
2022/06/22 07:40:15;;;;;;;8.00;6.35;;;;;;;25.89;44.54;101522.31;5091670;28;20028;-77
2022/06/22 07:42:41;;;;;;;10.48;6.38;;;;;;;25.81;44.48;101522.69;5090502;28;20034;-78
2022/06/22 07:45:15;;;;;;;11.73;7.32;;;;;;;25.76;44.54;101521.09;5071093;28;20048;-77
2022/06/22 07:47:55;;;;;;;9.45;5.88;;;;;;;25.98;44.20;101513.50;5071783;28;20032;-78
2022/06/22 07:50:28;;;;;;;9.95;6.10;;;;;;;26.10;44.22;101515.13;5071263;28;20540;-77
2022/06/22 07:53:18;;;;;;;10.35;6.50;;;;;;;26.11;43.89;101517.50;5083688;28;20036;-78
2022/06/22 07:55:53;;;;;;;8.98;5.72;;;;;;;26.16;44.02;101527.50;5070992;28;20698;-87
2022/06/22 07:58:34;;;;;;;10.77;5.95;;;;;;;26.21;43.70;101515.88;5091683;28;20486;-77
2022/06/22 08:01:10;;;;;;;8.13;5.72;;;;;;;26.35;43.56;101515.88;5090053;28;20528;-77
2022/06/22 08:03:42;;;;;;;8.57;5.60;;;;;;;26.42;43.58;101515.91;5092229;28;20025;-76
2022/06/22 08:06:15;;;;;;;12.43;6.15;;;;;;;26.38;43.46;101520.69;5082543;28;20116;-77
2022/06/22 08:08:53;;;;;;;9.65;5.32;;;;;;;26.38;43.45;101522.69;5073863;28;20036;-77
2022/06/22 08:11:32;;;;;;;14.00;6.20;;;;;;;26.47;43.43;101515.50;5074032;28;20102;-77
2022/06/22 08:14:19;;;;;;;11.27;4.68;;;;;;;26.57;43.35;101527.06;5074733;28;20028;-82
2022/06/22 08:16:52;;;;;;;8.68;5.68;;;;;;;26.53;43.31;101524.31;5091918;28;20028;-77
2022/06/22 08:19:19;;;;;;;9.43;5.00;;;;;;;26.67;43.10;101518.63;5095303;28;20073;-80
2022/06/22 08:21:48;;;;;;;6.80;5.47;;;;;;;26.73;43.00;101519.03;5095276;28;20024;-77
2022/06/22 08:24:18;;;;;;;7.70;5.50;;;;;;;26.62;43.10;101521.06;5095554;28;20020;-89
2022/06/22 08:26:45;;;;;;;14.73;7.68;;;;;;;26.82;42.79;101516.59;5078350;28;20280;-84
2022/06/22 08:29:14;;;;;;;8.50;5.85;;;;;;;26.93;42.93;101528.56;5075244;28;20072;-77
2022/06/22 08:31:49;;;;;;;9.40;4.75;;;;;;;27.06;42.53;101523.34;5075142;28;20112;-76
2022/06/22 08:34:20;;;;;;;9.35;5.40;;;;;;;27.13;42.46;101517.72;5075501;28;20035;-77
2022/06/22 08:36:56;;;;;;;8.52;5.72;;;;;;;27.18;42.13;101519.28;5091697;28;20020;-77
2022/06/22 08:39:48;;;;;;;11.48;6.30;;;;;;;27.28;42.35;101515.59;5095523;28;20034;-77
2022/06/22 08:42:58;;;;;;;10.68;7.50;;;;;;;27.32;42.05;101514.38;5094939;28;20081;-77
2022/06/22 08:45:42;;;;;;;7.72;5.47;;;;;;;27.25;41.97;101505.22;5089738;28;20397;-78
2022/06/22 08:48:45;;;;;;;8.15;5.93;;;;;;;27.43;41.68;101510.72;5074955;28;20505;-77
2022/06/22 08:51:43;;;;;;;6.90;5.60;;;;;;;27.57;41.33;101500.19;5074878;28;20028;-77
2022/06/22 08:54:48;;;;;;;8.30;5.50;;;;;;;27.59;41.25;101497.78;5073846;28;20040;-77
2022/06/22 08:57:40;;;;;;;8.50;5.93;;;;;;;27.81;40.65;101494.81;5094837;28;20035;-77
2022/06/22 09:00:19;;;;;;;9.10;5.88;;;;;;;28.01;40.23;101490.25;5094827;28;20020;-77
2022/06/22 09:03:18;;;;;;;7.15;6.03;;;;;;;27.99;40.32;101498.31;5094859;28;20102;-77
2022/06/22 09:05:59;;;;;;;9.52;6.35;;;;;;;27.96;40.32;101501.91;5054377;28;20564;-77
2022/06/22 09:08:33;;;;;;;14.05;7.82;;;;;;;27.87;40.36;101499.59;5054552;28;20399;-78
2022/06/22 09:11:10;;;;;;;11.02;6.30;;;;;;;28.01;40.12;101500.69;5062620;28;20028;-77
2022/06/22 09:14:13;;;;;;;9.10;6.80;;;;;;;28.09;40.24;101488.97;5094784;28;20081;-78
2022/06/22 09:17:08;;;;;;;7.65;6.30;;;;;;;27.95;40.32;101483.47;5077340;28;20032;-79
2022/06/22 09:19:34;;;;;;;7.25;6.35;;;;;;;28.09;40.35;101480.53;5088875;28;20497;-77
2022/06/22 09:22:44;;;;;;;8.45;7.13;;;;;;;28.14;40.03;101490.53;5094514;28;20028;-77
2022/06/22 09:25:31;;;;;;;7.25;5.82;;;;;;;28.25;40.03;101474.38;5085598;28;20074;-77
2022/06/22 09:28:03;;;;;;;10.80;6.90;;;;;;;28.24;39.91;101472.78;5092877;28;20020;-77
2022/06/22 09:30:56;;;;;;;10.60;6.72;;;;;;;28.40;39.42;101469.41;5081043;28;20025;-77
2022/06/22 09:33:46;;;;;;;9.60;6.53;;;;;;;28.54;39.52;101474.09;5072639;28;20028;-77
2022/06/22 09:36:39;;;;;;;8.63;6.32;;;;;;;28.50;39.41;101465.72;5073893;28;20051;-78
2022/06/22 09:39:40;;;;;;;8.85;6.82;;;;;;;28.75;39.60;101465.41;5074775;28;20490;-77
2022/06/22 09:42:15;;;;;;;8.77;7.00;;;;;;;28.77;39.35;101460.16;5081460;28;20493;-77
2022/06/22 09:44:46;;;;;;;10.55;8.15;;;;;;;28.82;39.24;101465.31;5093885;28;20055;-77
2022/06/22 09:47:35;;;;;;;9.75;7.35;;;;;;;28.80;38.98;101455.72;5094138;28;20063;-77
2022/06/22 09:50:23;;;;;;;9.95;8.30;;;;;;;28.91;39.01;101451.56;5085109;28;20432;-78
2022/06/22 09:53:13;;;;;;;11.13;6.35;;;;;;;28.87;39.07;101449.97;5073640;28;20021;-77
2022/06/22 09:58:47;;;;;;;;;;;;;;;28.69;38.76;101453.03;5083137;28;20031;-77
2022/06/22 10:01:50;;;;;;;9.50;6.57;;;;;;;29.02;38.40;101451.44;5092415;28;20373;-76
2022/06/22 10:04:46;;;;;;;8.52;6.72;;;;;;;28.71;38.91;101454.19;5092294;28;20036;-77
2022/06/22 10:07:43;;;;;;;8.65;6.93;;;;;;;28.94;38.32;101453.56;5053598;28;20061;-77
2022/06/22 10:10:13;;;;;;;9.32;6.53;;;;;;;29.06;38.27;101452.16;5053308;28;20383;-77
2022/06/22 10:13:04;;;;;;;10.18;7.20;;;;;;;29.01;38.09;101456.25;5053317;28;20052;-77
2022/06/22 10:15:46;;;;;;;10.10;7.38;;;;;;;29.02;38.23;101451.44;5068903;28;20484;-77
2022/06/22 10:18:34;;;;;;;10.70;7.93;;;;;;;28.95;38.14;101441.06;5093470;28;20043;-77
2022/06/22 10:21:17;;;;;;;13.68;6.80;;;;;;;29.02;38.06;101448.63;5093509;28;20102;-77
2022/06/22 10:24:05;;;;;;;9.48;7.55;;;;;;;28.72;38.29;101453.00;5091987;28;20047;-77
2022/06/22 10:26:33;;;;;;;9.80;7.43;;;;;;;28.88;38.38;101454.41;5076050;28;20486;-78
2022/06/22 10:29:36;;;;;;;7.95;6.97;;;;;;;28.93;38.03;101451.13;5073018;28;20033;-77
2022/06/22 10:32:28;;;;;;;11.50;8.27;;;;;;;28.90;37.92;101449.97;5073181;28;20035;-77
2022/06/22 10:35:06;;;;;;;10.30;8.23;;;;;;;29.11;37.67;101459.34;5075288;28;20036;-79
2022/06/22 10:37:53;;;;;;;12.20;8.57;;;;;;;28.92;37.90;101461.59;5093180;28;20432;-88
2022/06/22 10:46:47;;;;;;;11.57;7.85;;;;;;;28.24;38.53;101455.13;5076653;28;20419;-77
2022/06/22 10:49:37;;;;;;;8.18;6.65;;;;;;;28.09;39.00;101448.84;5071500;28;20075;-77
2022/06/22 10:52:36;;;;;;;8.57;7.28;;;;;;;28.04;39.34;101449.31;5072767;28;20021;-77
2022/06/22 10:55:40;;;;;;;10.18;7.63;;;;;;;28.15;39.03;101439.56;5075069;28;20067;-77
2022/06/22 10:58:47;;;;;;;9.98;7.13;;;;;;;28.26;38.78;101435.81;5092851;28;20054;-77
2022/06/22 11:01:21;;;;;;;9.90;7.38;;;;;;;28.21;38.89;101437.09;5030348;28;20033;-77
2022/06/22 11:04:08;;;;;;;12.82;7.38;;;;;;;28.34;38.74;101445.78;5080240;28;20036;-77
2022/06/22 11:06:54;;;;;;;11.73;8.02;;;;;;;28.34;38.94;101437.38;5083311;28;20054;-77
2022/06/22 11:09:38;;;;;;;11.27;7.93;;;;;;;28.50;39.04;101437.59;5092938;28;20020;-77
2022/06/22 11:12:23;;;;;;;10.95;8.45;;;;;;;28.69;38.66;101445.38;5092605;28;20109;-77
2022/06/22 11:15:10;;;;;;;12.45;9.30;;;;;;;28.53;38.77;101439.56;5078074;28;20050;-77
2022/06/22 11:17:56;;;;;;;12.00;9.43;;;;;;;28.80;38.48;101442.47;5072410;28;20056;-77
2022/06/22 11:20:40;;;;;;;23.50;11.50;;;;;;;28.72;38.76;101438.16;5072435;28;20044;-85
2022/06/22 11:23:44;;;;;;;15.05;10.35;;;;;;;28.66;38.69;101429.38;5085789;28;20038;-77
2022/06/22 11:32:50;;;;;;;15.18;9.70;;;;;;;28.59;38.70;101439.91;5084411;28;20390;-76
2022/06/22 11:35:41;;;;;;;13.07;9.40;;;;;;;28.62;38.65;101431.41;5072277;28;20033;-77
2022/06/22 11:38:06;;;;;;;11.00;9.13;;;;;;;28.69;39.00;101428.50;5073685;28;20031;-77
2022/06/22 11:41:02;;;;;;;12.63;8.82;;;;;;;29.03;38.45;101430.53;5076269;28;20021;-77
2022/06/22 11:43:32;;;;;;;10.15;8.05;;;;;;;29.18;38.33;101423.47;5092144;28;20024;-77
2022/06/22 11:46:13;;;;;;;14.73;9.88;;;;;;;29.21;38.54;101421.81;5096251;28;20134;-78
2022/06/22 11:48:54;;;;;;;10.65;9.55;;;;;;;29.39;37.76;101424.34;5096299;28;20056;-77
2022/06/22 11:52:05;;;;;;;11.10;9.57;;;;;;;29.45;37.67;101420.63;5096501;28;20408;-85
2022/06/22 11:54:57;;;;;;;15.35;10.88;;;;;;;29.67;37.82;101423.91;5072992;28;20417;-77
2022/06/22 11:58:11;;;;;;;11.00;9.80;;;;;;;29.71;37.81;101415.41;5075855;28;20064;-77
2022/06/22 12:01:02;;;;;;;11.18;8.88;;;;;;;29.72;37.60;101414.19;5053724;28;20146;-77
2022/06/22 12:03:45;;;;;;;10.93;9.48;;;;;;;29.74;37.39;101418.16;5052887;28;20036;-77
2022/06/22 12:06:27;;;;;;;12.98;10.05;;;;;;;29.72;37.38;101417.78;5055249;28;20044;-77
2022/06/22 12:09:31;;;;;;;13.02;11.63;;;;;;;29.61;37.42;101413.56;5055694;28;20021;-77
2022/06/22 12:12:12;;;;;;;11.60;10.20;;;;;;;29.47;37.64;101417.38;5087806;28;20040;-77
2022/06/22 12:15:27;;;;;;;16.83;12.32;;;;;;;29.59;37.59;101422.44;5094670;28;20031;-77
2022/06/22 12:18:13;;;;;;;16.05;11.75;;;;;;;29.66;37.51;101415.88;5085220;28;20035;-77
2022/06/22 12:20:53;;;;;;;12.20;10.50;;;;;;;29.51;37.47;101418.16;5090278;28;20025;-77
2022/06/22 12:23:28;;;;;;;12.73;10.77;;;;;;;29.69;37.19;101410.19;5075600;28;20023;-77
2022/06/22 12:26:15;;;;;;;13.57;11.10;;;;;;;29.53;37.03;101416.47;5075167;28;20037;-77
2022/06/22 12:28:47;;;;;;;14.25;11.80;;;;;;;29.55;37.29;101413.28;5075356;28;20056;-76
2022/06/22 12:31:21;;;;;;;12.35;11.05;;;;;;;29.74;37.33;101412.53;5075312;28;20402;-77
2022/06/22 12:34:02;;;;;;;16.10;12.20;;;;;;;29.50;37.54;101410.94;5075302;28;20048;-77
2022/06/22 12:36:44;;;;;;;14.38;12.00;;;;;;;29.64;37.19;101405.06;5075089;28;20089;-78
2022/06/22 12:39:45;;;;;;;16.42;11.43;;;;;;;29.61;37.53;101405.91;5075122;28;20029;-89